createdAt,value
2018-03-17T00:01:55.680Z,17.91
2018-03-17T00:07:46.340Z,13.36
2018-03-17T00:13:37.012Z,14.1
2018-03-17T00:19:27.702Z,20.9
2018-03-17T00:25:18.397Z,19.99
2018-03-17T00:31:09.006Z,19.67
2018-03-17T00:36:59.738Z,20.47
2018-03-17T00:42:50.347Z,16.78
2018-03-17T00:48:41.016Z,16.21
2018-03-17T00:54:31.726Z,11.75
2018-03-17T01:00:22.389Z,11.48
2018-03-17T01:06:13.039Z,8.24
2018-03-17T01:12:03.714Z,4.31
2018-03-17T01:17:54.411Z,3.11
2018-03-17T01:23:45.039Z,3.76
2018-03-17T01:29:35.728Z,3.1
2018-03-17T01:35:26.435Z,2.9
2018-03-17T01:41:17.052Z,2.52
2018-03-17T01:47:07.752Z,3.41
2018-03-17T01:52:58.367Z,4.79
2018-03-17T01:58:49.060Z,4.64
2018-03-17T02:04:39.715Z,5.45
2018-03-17T02:10:30.401Z,5.41
2018-03-17T02:16:21.079Z,6.47
2018-03-17T02:22:11.714Z,4.4
2018-03-17T02:28:02.360Z,4.8
2018-03-17T02:33:53.066Z,4.86
2018-03-17T02:39:43.663Z,5.23
2018-03-17T02:45:34.405Z,5.51
2018-03-17T02:51:25.020Z,8.42
2018-03-17T02:57:15.671Z,8.47
2018-03-17T03:03:06.345Z,8.54
2018-03-17T03:08:57.010Z,8.48
2018-03-17T03:14:47.741Z,7.88
2018-03-17T03:20:38.310Z,5.15
2018-03-17T03:26:28.994Z,6.25
2018-03-17T03:32:19.664Z,6.75
2018-03-17T03:38:10.309Z,6.3
2018-03-17T03:44:00.994Z,6.33
2018-03-17T03:49:51.593Z,8.44
2018-03-17T03:55:42.308Z,13.31
2018-03-17T04:01:32.969Z,9.97
2018-03-17T04:07:23.613Z,10.03
2018-03-17T04:13:14.318Z,11
2018-03-17T04:19:04.924Z,10.88
2018-03-17T04:24:55.597Z,11.34
2018-03-17T04:30:46.266Z,9.8
2018-03-17T04:36:36.903Z,10.79
2018-03-17T04:42:27.576Z,8.99
2018-03-17T04:48:18.228Z,8.93
2018-03-17T04:54:08.877Z,7.6
2018-03-17T04:59:59.660Z,7.11
2018-03-17T05:05:50.196Z,6.84
2018-03-17T05:11:40.940Z,8.04
2018-03-17T05:17:31.522Z,9.01
2018-03-17T05:23:22.216Z,9.95
2018-03-17T05:29:12.834Z,9.81
2018-03-17T05:35:03.562Z,9
2018-03-17T05:40:54.134Z,9.78
2018-03-17T05:46:44.846Z,10.44
2018-03-17T05:52:35.461Z,8.74
2018-03-17T05:58:26.130Z,9.75
2018-03-17T06:04:16.844Z,10.79
2018-03-17T06:10:07.461Z,8.71
2018-03-17T06:15:58.148Z,7.7
2018-03-17T06:21:48.754Z,7.23
2018-03-17T06:27:39.521Z,7.75
2018-03-17T06:33:30.177Z,6.3
2018-03-17T06:39:20.784Z,6.01
2018-03-17T06:45:11.429Z,5.4
2018-03-17T06:51:02.072Z,6.17
2018-03-17T06:56:52.782Z,6.29
2018-03-17T07:02:43.443Z,6.33
2018-03-17T07:08:34.097Z,6.24
2018-03-17T07:14:24.739Z,6.9
2018-03-17T07:20:15.416Z,5.15
2018-03-17T07:26:06.090Z,7.16
2018-03-17T07:31:56.740Z,7.63
2018-03-17T07:37:47.415Z,5.58
2018-03-17T07:43:38.119Z,4.01
2018-03-17T07:49:28.766Z,4.12
2018-03-17T07:55:19.419Z,4.2
2018-03-17T08:01:10.178Z,3.97
2018-03-17T08:07:00.790Z,3.87
2018-03-17T08:12:51.434Z,4.08
2018-03-17T08:18:42.096Z,4.85
2018-03-17T08:24:32.770Z,3.65
2018-03-17T08:30:23.448Z,3.58
2018-03-17T08:36:14.167Z,6.94
2018-03-17T08:42:04.774Z,7.81
2018-03-17T08:47:55.473Z,5.91
2018-03-17T08:53:46.090Z,5.54
2018-03-17T08:59:36.784Z,6.42
2018-03-17T09:05:27.460Z,6.38
2018-03-17T09:11:18.153Z,6.88
2018-03-17T09:17:08.746Z,6.98
2018-03-17T09:22:59.468Z,5.19
2018-03-17T09:28:50.101Z,5.17
2018-03-17T09:34:40.749Z,4.87
2018-03-17T09:40:31.395Z,5.22
2018-03-17T09:46:22.096Z,5.64
2018-03-17T09:52:12.787Z,4.93
2018-03-17T09:58:03.475Z,5.18
2018-03-17T10:03:54.130Z,5.09
2018-03-17T10:09:44.796Z,5.49
2018-03-17T10:15:35.487Z,4.95
2018-03-17T10:21:26.151Z,4.19
2018-03-17T10:27:16.835Z,4.55
2018-03-17T10:33:07.547Z,4.4
2018-03-17T10:38:58.181Z,3.86
2018-03-17T10:44:48.877Z,4.57
2018-03-17T10:50:39.588Z,4.52
2018-03-17T10:56:30.312Z,5.07
2018-03-17T11:02:20.954Z,5.2
2018-03-17T11:08:11.654Z,5.59
2018-03-17T11:14:02.294Z,5.27
2018-03-17T11:19:53.000Z,5.44
2018-03-17T11:25:43.724Z,5.54
2018-03-17T11:31:34.364Z,5.54
2018-03-17T11:37:25.101Z,7.52
2018-03-17T11:43:15.735Z,4.91
2018-03-17T11:49:06.505Z,4.23
2018-03-17T11:54:57.067Z,4.74
2018-03-17T12:00:47.775Z,4.58
2018-03-17T12:06:38.544Z,4.8
2018-03-17T12:12:29.141Z,4.37
2018-03-17T12:18:19.865Z,5.31
2018-03-17T12:24:10.578Z,4.81
2018-03-17T12:30:01.228Z,4.37
2018-03-17T12:35:51.954Z,4.5
2018-03-17T12:41:42.657Z,3.59
2018-03-17T12:47:33.351Z,3.56
2018-03-17T12:53:24.045Z,3.32
2018-03-17T12:59:14.685Z,3.25
2018-03-17T13:05:05.454Z,3.36
2018-03-17T13:10:56.131Z,3.22
2018-03-17T13:16:46.810Z,2.73
2018-03-17T13:22:37.593Z,2.83
2018-03-17T13:28:28.175Z,2.77
2018-03-17T13:34:18.936Z,2.63
2018-03-17T13:40:09.584Z,2.31
2018-03-17T13:46:00.300Z,2.78
2018-03-17T13:51:51.004Z,2.7
2018-03-17T13:57:41.637Z,2.73
2018-03-17T14:03:32.357Z,2.79
2018-03-17T14:09:23.069Z,2.55
2018-03-17T14:15:13.675Z,2.39
2018-03-17T14:21:04.377Z,3.58
2018-03-17T14:26:55.030Z,2.84
2018-03-17T14:32:45.760Z,2.03
2018-03-17T14:38:36.435Z,2.28
2018-03-17T14:44:27.082Z,2.45
2018-03-17T14:50:17.749Z,2.97
2018-03-17T14:56:08.416Z,2.66
2018-03-17T15:01:59.104Z,3.19
2018-03-17T15:07:49.797Z,4.44
2018-03-17T15:13:40.562Z,2.89
2018-03-17T15:19:31.190Z,3.3
2018-03-17T15:25:21.882Z,3.46
2018-03-17T15:31:12.525Z,3.85
2018-03-17T15:37:03.246Z,3.74
2018-03-17T15:42:53.904Z,3.44
2018-03-17T15:48:44.581Z,3.47
2018-03-17T15:54:35.266Z,3.46
2018-03-17T16:00:25.896Z,3.81
2018-03-17T16:06:16.547Z,4.21
2018-03-17T16:12:07.269Z,4.54
2018-03-17T16:17:57.933Z,3.75
2018-03-17T16:23:48.616Z,3.86
2018-03-17T16:29:39.300Z,4.09
2018-03-17T16:35:30.024Z,3.93
2018-03-17T16:41:20.723Z,4.72
2018-03-17T16:47:11.321Z,3.35
2018-03-17T16:53:02.046Z,4.09
2018-03-17T16:58:52.687Z,3.88
2018-03-17T17:04:43.358Z,4.06
2018-03-17T17:10:34.038Z,3.98
2018-03-17T17:16:24.741Z,4.07
2018-03-17T17:22:15.453Z,5.22
2018-03-17T17:28:06.126Z,5.27
2018-03-17T17:33:56.712Z,5.73
2018-03-17T17:39:47.435Z,5.34
2018-03-17T17:45:38.078Z,6.09
2018-03-17T17:51:28.732Z,7.29
2018-03-17T17:57:19.388Z,5.36
2018-03-17T18:03:10.069Z,4.59
2018-03-17T18:09:00.763Z,4.58
2018-03-17T18:14:51.457Z,5.32
2018-03-17T18:20:42.075Z,3.5
2018-03-17T18:26:32.736Z,3.31
2018-03-17T18:32:23.422Z,4.25
2018-03-17T18:38:14.082Z,3.59
2018-03-17T18:44:04.761Z,4.68
2018-03-17T18:49:55.416Z,4.07
2018-03-17T18:55:46.126Z,4.41
2018-03-17T19:01:36.765Z,3.8
2018-03-17T19:07:27.458Z,4.43
2018-03-17T19:13:18.069Z,4.14
2018-03-17T19:19:08.804Z,4.46
2018-03-17T19:24:59.457Z,3.7
2018-03-17T19:30:50.055Z,6
2018-03-17T19:36:40.769Z,4.42
2018-03-17T19:42:31.421Z,5.19
2018-03-17T19:48:22.068Z,6.09
2018-03-17T19:54:12.775Z,5.94
2018-03-17T20:00:03.404Z,5.19
2018-03-17T20:05:54.114Z,5.62
2018-03-17T20:11:44.739Z,4.2
2018-03-17T20:17:35.950Z,7.54
2018-03-17T20:23:26.028Z,4.77
2018-03-17T20:29:16.742Z,4.21
2018-03-17T20:35:07.437Z,4.83
2018-03-17T20:40:58.055Z,4.04
2018-03-17T20:46:48.745Z,4.37
2018-03-17T20:52:39.343Z,4.39
2018-03-17T20:58:30.010Z,4.16
2018-03-17T21:04:20.744Z,5.68
2018-03-17T21:10:11.408Z,3.78
2018-03-17T21:16:02.026Z,4.29
2018-03-17T21:21:52.659Z,4.42
2018-03-17T21:27:43.291Z,4.46
2018-03-17T21:33:33.957Z,5.12
2018-03-17T21:39:24.694Z,4.63
2018-03-17T21:45:15.294Z,4.82
2018-03-17T21:51:05.887Z,35.43
2018-03-17T21:56:56.571Z,5.82
2018-03-17T22:02:47.190Z,6.66
2018-03-17T22:08:37.851Z,4.45
2018-03-17T22:14:28.521Z,5.89
2018-03-17T22:20:19.183Z,4.16
2018-03-17T22:26:09.804Z,4.63
2018-03-17T22:32:00.481Z,4.33
2018-03-17T22:37:51.121Z,4.24
2018-03-17T22:43:41.783Z,5.14
2018-03-17T22:49:32.441Z,4.77
2018-03-17T22:55:23.156Z,4.42
2018-03-17T23:01:13.777Z,4.74
2018-03-17T23:07:04.381Z,3.79
2018-03-17T23:12:55.108Z,3.59
2018-03-17T23:18:45.673Z,3.77
2018-03-17T23:24:36.324Z,3.77
2018-03-17T23:30:27.009Z,3.91
2018-03-17T23:36:17.659Z,3.88
2018-03-17T23:42:08.357Z,5.13
2018-03-17T23:47:58.963Z,9.81
2018-03-17T23:53:49.649Z,11.28
2018-03-17T23:59:40.291Z,3.65
